createdAt,value
2022-12-20T18:39:39.576Z,87.58
2022-12-20T18:40:39.497Z,87.92
2022-12-20T18:41:39.552Z,87.73
2022-12-20T18:42:39.627Z,87.92
2022-12-20T18:43:39.332Z,88.01
2022-12-20T18:44:39.534Z,87.82
2022-12-20T18:45:39.716Z,88.29
2022-12-20T18:46:39.661Z,88.29
2022-12-20T18:47:39.759Z,87.35
2022-12-20T18:48:39.540Z,88.01
2022-12-20T18:49:39.610Z,88.2
2022-12-20T18:50:39.590Z,88.68
2022-12-20T18:51:39.312Z,88.01
2022-12-20T18:52:39.320Z,88.39
2022-12-20T18:53:39.339Z,88.77
2022-12-20T18:54:39.617Z,88.1
2022-12-20T18:55:39.621Z,88.39
2022-12-20T18:56:39.805Z,88.58
2022-12-20T18:57:39.624Z,87.35
2022-12-20T18:58:39.407Z,86.97
2022-12-20T18:59:39.581Z,87.82
2022-12-20T19:00:39.649Z,88.01
2022-12-20T19:01:40.596Z,88.01
2022-12-20T19:02:40.172Z,87.63
2022-12-20T19:03:40.216Z,88.48
2022-12-20T19:04:39.610Z,89.34
2022-12-20T19:05:39.620Z,88.77
2022-12-20T19:06:39.634Z,89.25
2022-12-20T19:07:39.629Z,88.77
2022-12-20T19:08:39.650Z,88.68
2022-12-20T19:09:39.672Z,88.87
2022-12-20T19:10:39.629Z,88.96
2022-12-20T19:11:39.712Z,88.39
2022-12-20T19:12:39.791Z,88.01
2022-12-20T19:13:39.402Z,88.29
2022-12-20T19:14:39.899Z,88.68
2022-12-20T19:15:39.684Z,88.96
2022-12-20T19:16:40.085Z,88.77
2022-12-20T19:17:39.700Z,88.29
2022-12-20T19:18:39.729Z,88.29
2022-12-20T19:19:39.466Z,88.96
2022-12-20T19:20:39.716Z,88.01
2022-12-20T19:21:39.712Z,88.1
2022-12-20T19:22:39.959Z,88.39
2022-12-20T19:23:39.716Z,88.87
2022-12-20T19:24:39.717Z,88.43
2022-12-20T19:25:39.743Z,87.3
2022-12-20T19:26:39.738Z,86.91
2022-12-20T19:27:39.835Z,87.01
2022-12-20T19:28:39.793Z,87.2
2022-12-20T19:29:39.781Z,87.96
2022-12-20T19:30:39.980Z,87.2
2022-12-20T19:31:40.571Z,88.06
2022-12-20T19:32:39.824Z,87.77
2022-12-20T19:33:39.820Z,87.96
2022-12-20T19:34:39.795Z,87.68
2022-12-20T19:36:09.532Z,87.58
2022-12-20T19:36:39.825Z,87.77
2022-12-20T19:37:40.260Z,88.62
2022-12-20T19:38:39.841Z,89.39
2022-12-20T19:39:40.149Z,89.2
2022-12-20T19:40:39.839Z,89.58
2022-12-20T19:41:39.915Z,89.39
2022-12-20T19:42:39.839Z,88.72
2022-12-20T19:43:39.907Z,89.2
2022-12-20T19:44:39.871Z,89.1
2022-12-20T19:45:39.851Z,89.39
2022-12-20T19:46:40.054Z,89.39
2022-12-20T19:47:39.924Z,89.67
2022-12-20T19:48:40.235Z,89.76
2022-12-20T19:49:40.041Z,89.1
2022-12-20T19:50:40.202Z,90.1
2022-12-20T19:51:39.645Z,90.81
2022-12-20T19:52:39.644Z,89.95
2022-12-20T19:53:40.519Z,89.95
2022-12-20T19:54:40.083Z,90.57
2022-12-20T19:55:40.537Z,90.62
2022-12-20T19:56:39.683Z,90.71
2022-12-20T19:57:39.925Z,90.48
2022-12-20T19:58:39.957Z,90.71
2022-12-20T19:59:40.064Z,91.19
2022-12-20T20:00:39.961Z,90.76
2022-12-20T20:01:40.357Z,91.05
2022-12-20T20:02:40.455Z,90.9
2022-12-20T20:03:40.211Z,91.33
2022-12-20T20:04:40.030Z,90.76
2022-12-20T20:05:40.020Z,90.57
2022-12-20T20:06:40.014Z,91.19
2022-12-20T20:07:39.981Z,90.48
2022-12-20T20:08:40.111Z,91.09
2022-12-20T20:09:40.002Z,91.05
2022-12-20T20:10:40.079Z,91.05
2022-12-20T20:11:40.131Z,91.42
2022-12-20T20:12:40.112Z,90.57
2022-12-20T20:13:40.070Z,91.52
2022-12-20T20:14:40.125Z,91.47
2022-12-20T20:15:40.374Z,92.18
2022-12-20T20:16:41.012Z,92.28
2022-12-20T20:17:40.224Z,91.94
2022-12-20T20:18:40.087Z,92.28
2022-12-20T20:19:39.901Z,93.51
2022-12-20T20:20:39.990Z,93.13
2022-12-20T20:21:40.142Z,93.13
2022-12-20T20:22:40.277Z,93.18
2022-12-20T20:23:40.207Z,93.04
2022-12-20T20:24:40.221Z,92.47
2022-12-20T20:25:40.138Z,92.85
2022-12-20T20:26:40.412Z,92.57
2022-12-20T20:27:40.611Z,93.13
2022-12-20T20:28:47.274Z,93.32
2022-12-20T20:29:40.310Z,92.18
2022-12-20T20:30:40.379Z,91.99
2022-12-20T20:31:40.462Z,91.52
2022-12-20T20:32:40.166Z,92.14
2022-12-20T20:33:40.344Z,91.85
2022-12-20T20:34:40.210Z,91.52
2022-12-20T20:35:40.213Z,92.66
2022-12-20T20:36:40.469Z,91.38
2022-12-20T20:37:40.287Z,92.14
2022-12-20T20:38:40.351Z,92.18
2022-12-20T20:39:40.196Z,91.47
2022-12-20T20:40:40.181Z,91.09
2022-12-20T20:41:40.206Z,91.75
2022-12-20T20:42:40.244Z,92.14
2022-12-20T20:43:40.934Z,90.95
2022-12-20T20:44:40.296Z,90.9
2022-12-20T20:45:40.279Z,91
2022-12-20T20:46:40.429Z,90.71
2022-12-20T20:47:40.346Z,91
2022-12-20T20:48:39.972Z,90.62
2022-12-20T20:49:39.980Z,90.71
2022-12-20T20:50:40.000Z,90.62
2022-12-20T20:51:40.303Z,90.62
2022-12-20T20:52:40.369Z,90.71
2022-12-20T20:53:40.401Z,90.24
2022-12-20T20:54:40.412Z,91.09
2022-12-20T20:55:40.405Z,90.62
2022-12-20T20:56:40.326Z,90.9
2022-12-20T20:57:40.394Z,90.33
2022-12-20T20:58:40.350Z,89.86
2022-12-20T20:59:40.033Z,89.95
2022-12-20T21:00:40.407Z,90.81
2022-12-20T21:01:40.615Z,90.05
2022-12-20T21:02:40.698Z,90.05
2022-12-20T21:03:40.625Z,90.14
2022-12-20T21:04:40.369Z,89.48
2022-12-20T21:06:39.632Z,90.33
2022-12-20T21:06:49.619Z,90.14
2022-12-20T21:07:49.929Z,89.39
2022-12-20T21:08:49.894Z,90.9
2022-12-20T21:09:49.901Z,90.52
2022-12-20T21:10:50.501Z,90.14
2022-12-20T21:11:50.008Z,90.33
2022-12-20T21:12:49.651Z,90.48
2022-12-20T21:13:49.931Z,91.09
2022-12-20T21:15:24.261Z,89.86
2022-12-20T21:15:50.011Z,90.1
2022-12-20T21:16:50.057Z,90.62
2022-12-20T21:17:50.032Z,89.62
2022-12-20T21:18:50.007Z,88.72
2022-12-20T21:19:49.683Z,89.15
2022-12-20T21:20:49.691Z,89
2022-12-20T21:21:49.938Z,88.72
2022-12-20T21:22:49.972Z,89.29
2022-12-20T21:23:50.008Z,89.2
2022-12-20T21:24:50.022Z,89.2
2022-12-20T21:25:49.728Z,88.87
2022-12-20T21:26:50.167Z,88.34
2022-12-20T21:27:49.735Z,88.34
2022-12-20T21:28:50.044Z,87.96
2022-12-20T21:29:49.780Z,88.34
2022-12-20T21:30:50.025Z,87.2
2022-12-20T21:31:50.199Z,87.3
2022-12-20T21:32:49.769Z,87.96
2022-12-20T21:33:50.112Z,87.96
2022-12-20T21:34:50.086Z,88.06
2022-12-20T21:35:56.108Z,87.39
2022-12-20T21:36:49.809Z,87.96
2022-12-20T21:37:50.050Z,87.39
2022-12-20T21:38:50.180Z,87.3
2022-12-20T21:39:49.798Z,86.82
2022-12-20T21:40:50.194Z,86.91
2022-12-20T21:41:50.068Z,87.11
2022-12-20T21:42:50.138Z,87.68
2022-12-20T21:43:50.166Z,87.2
2022-12-20T21:44:50.146Z,86.35
2022-12-20T21:45:50.155Z,86.07
2022-12-20T21:46:50.312Z,86.35
2022-12-20T21:47:50.103Z,86.54
2022-12-20T21:48:50.167Z,86.82
2022-12-20T21:49:49.902Z,86.25
2022-12-20T21:50:50.192Z,85.78
2022-12-20T21:51:50.164Z,86.25
2022-12-20T21:52:49.892Z,85.68
2022-12-20T21:53:50.190Z,85.3
2022-12-20T21:54:49.934Z,85.78
2022-12-20T21:55:49.907Z,86.07
2022-12-20T21:56:50.152Z,86.25
2022-12-20T21:57:49.941Z,85.59
2022-12-20T21:58:50.171Z,85.97
2022-12-20T21:59:50.220Z,86.35
2022-12-20T22:00:56.820Z,85.78
2022-12-20T22:01:50.693Z,85.49
2022-12-20T22:02:50.219Z,84.55
2022-12-20T22:03:50.222Z,85.11
2022-12-20T22:04:50.203Z,85.87
2022-12-20T22:05:50.251Z,86.35
2022-12-20T22:06:50.284Z,85.97
2022-12-20T22:07:50.228Z,87.39
2022-12-20T22:08:50.267Z,86.72
2022-12-20T22:09:50.251Z,87.87
2022-12-20T22:10:50.245Z,87.68
2022-12-20T22:11:50.259Z,88.81
2022-12-20T22:12:50.245Z,88.06
2022-12-20T22:13:50.301Z,87.11
2022-12-20T22:14:50.343Z,87.01
2022-12-20T22:15:50.447Z,86.63
2022-12-20T22:16:50.458Z,86.25
2022-12-20T22:17:50.308Z,87.39
2022-12-20T22:18:50.115Z,87.96
2022-12-20T22:19:50.317Z,86.72
2022-12-20T22:20:50.067Z,86.44
2022-12-20T22:21:58.713Z,86.72
2022-12-20T22:22:50.350Z,86.07
2022-12-20T22:23:50.351Z,86.16
2022-12-20T22:24:50.319Z,85.78
2022-12-20T22:25:50.403Z,86.54
2022-12-20T22:26:50.073Z,86.16
2022-12-20T22:27:50.391Z,86.07
2022-12-20T22:28:50.393Z,86.44
2022-12-20T22:29:50.366Z,86.44
2022-12-20T22:30:50.346Z,85.87
2022-12-20T22:31:50.581Z,85.78
2022-12-20T22:32:50.363Z,86.07
2022-12-20T22:33:51.007Z,85.68
2022-12-20T22:34:50.547Z,85.21
2022-12-20T22:35:50.388Z,86.16
2022-12-20T22:36:50.189Z,85.68
2022-12-20T22:37:50.420Z,85.97
2022-12-20T22:38:50.521Z,85.21
2022-12-20T22:39:50.171Z,85.78
2022-12-20T22:40:50.454Z,85.02
2022-12-20T22:41:50.253Z,84.92
2022-12-20T22:42:50.459Z,85.87
2022-12-20T22:43:50.468Z,85.59
2022-12-20T22:44:50.183Z,86.63
2022-12-20T22:45:50.775Z,86.72
2022-12-20T22:46:50.538Z,86.72
2022-12-20T22:47:51.626Z,85.59
2022-12-20T22:48:50.216Z,85.4
2022-12-20T22:49:50.348Z,85.68
2022-12-20T22:50:50.462Z,86.54
2022-12-20T22:52:08.814Z,87.01
2022-12-20T22:52:50.500Z,86.54
2022-12-20T22:53:50.846Z,86.25
2022-12-20T22:54:50.523Z,86.16
2022-12-20T22:55:50.514Z,87.2
2022-12-20T22:56:50.542Z,86.44
2022-12-20T22:57:50.578Z,86.07
2022-12-20T22:58:50.583Z,86.07
2022-12-20T22:59:50.556Z,86.25
2022-12-20T23:00:50.604Z,85.87
2022-12-20T23:01:51.053Z,85.68
2022-12-20T23:02:51.170Z,85.87
2022-12-20T23:03:50.792Z,86.44
2022-12-20T23:04:50.558Z,85.78
2022-12-20T23:06:09.510Z,86.07
2022-12-20T23:06:52.276Z,86.35
2022-12-20T23:08:09.772Z,85.97
2022-12-20T23:08:50.627Z,86.35
2022-12-20T23:10:09.836Z,85.78
2022-12-20T23:10:50.591Z,85.49
2022-12-20T23:11:50.613Z,85.87
2022-12-20T23:12:50.620Z,85.4
2022-12-20T23:13:50.605Z,85.4
2022-12-20T23:14:50.615Z,84.55
2022-12-20T23:15:50.610Z,84.83
2022-12-20T23:16:50.907Z,85.59
2022-12-20T23:17:50.628Z,84.92
2022-12-20T23:18:50.731Z,84.55
2022-12-20T23:19:50.935Z,84.64
2022-12-20T23:20:50.388Z,84.36
2022-12-20T23:21:50.701Z,85.4
2022-12-20T23:22:50.466Z,85.02
2022-12-20T23:23:58.107Z,85.3
2022-12-20T23:24:50.421Z,85.78
2022-12-20T23:25:50.869Z,85.87
2022-12-20T23:26:50.681Z,85.97
2022-12-20T23:27:50.697Z,86.44
2022-12-20T23:28:50.714Z,86.72
2022-12-20T23:29:51.021Z,87.39
2022-12-20T23:30:50.737Z,86.91
2022-12-20T23:31:51.180Z,86.91
2022-12-20T23:32:50.863Z,86.68
2022-12-20T23:33:50.925Z,88.15
2022-12-20T23:34:51.422Z,88.06
2022-12-20T23:35:50.738Z,88.24
2022-12-20T23:36:50.813Z,88.29
2022-12-20T23:37:50.793Z,89.25
2022-12-20T23:38:50.864Z,89.34
2022-12-20T23:39:50.808Z,90.29
2022-12-20T23:40:50.604Z,90.29
2022-12-20T23:41:51.259Z,90.86
2022-12-20T23:42:51.033Z,91.61
2022-12-20T23:43:51.018Z,91.8
2022-12-20T23:44:51.069Z,91.52
2022-12-20T23:45:50.697Z,90.95
2022-12-20T23:46:50.549Z,91.33
2022-12-20T23:47:50.844Z,91.99
2022-12-20T23:48:50.865Z,91.99
2022-12-20T23:49:50.589Z,92.76
2022-12-20T23:50:51.037Z,93.7
2022-12-20T23:51:50.941Z,93.51
2022-12-20T23:52:50.952Z,93.8
2022-12-20T23:53:50.838Z,94.27
2022-12-20T23:54:50.631Z,94.74
2022-12-20T23:55:50.858Z,93.8
2022-12-20T23:56:50.902Z,94.18
2022-12-20T23:57:50.907Z,94.27
2022-12-20T23:58:50.904Z,94.37
2022-12-20T23:59:50.906Z,93.13
